Time;durP1;ratioP1;P1;durP2;ratioP2;P2;SDS_P1;SDS_P2;PMS_P1;PMS_P2;Temp;Humidity;BMP_temperature;BMP_pressure;BME280_temperature;BME280_humidity;BME280_pressure;Samples;Min_cycle;Max_cycle;Signal;HPM_P1;HPM_P2
2023/10/07 00:01:27;;;;;;;13.57;1.52;;;;;;;;;;5012025;28;20121;-76
2023/10/07 00:03:58;;;;;;;1.58;1.55;;;;;;;;;;5012580;28;20045;-76
2023/10/07 00:06:27;;;;;;;0.00;0.00;;;;;;;;;;5010340;28;20042;-76
2023/10/07 00:08:58;;;;;;;0.85;0.80;;;;;;;;;;5008627;28;20124;-76
2023/10/07 00:11:27;;;;;;;0.52;0.52;;;;;;;;;;5011991;28;20050;-76
2023/10/07 00:13:55;;;;;;;0.65;0.65;;;;;;;;;;5012857;28;20566;-76
2023/10/07 00:16:24;;;;;;;0.00;0.00;;;;;;;;;;5012003;28;20046;-76
2023/10/07 00:18:54;;;;;;;0.00;0.00;;;;;;;;;;5010705;28;20045;-76
2023/10/07 00:21:39;;;;;;;0.40;0.40;;;;;;;;;;5007483;28;20535;-76
2023/10/07 00:24:07;;;;;;;0.32;0.32;;;;;;;;;;5005812;28;20046;-76
2023/10/07 00:26:36;;;;;;;0.00;0.00;;;;;;;;;;5008140;28;20046;-76
2023/10/07 00:29:04;;;;;;;0.10;0.10;;;;;;;;;;5004219;28;20038;-76
2023/10/07 00:31:33;;;;;;;1.13;1.13;;;;;;;;;;5007799;28;20057;-76
2023/10/07 00:34:05;;;;;;;0.10;0.10;;;;;;;;;;5008299;28;20120;-76
2023/10/07 00:39:19;;;;;;;0.15;0.15;;;;;;;;;;5007787;28;20054;-76
2023/10/07 00:41:50;;;;;;;0.10;0.10;;;;;;;;;;5006403;28;20385;-76
2023/10/07 00:44:29;;;;;;;0.10;0.10;;;;;;;;;;5004960;28;20389;-76
2023/10/07 00:49:41;;;;;;;0.20;0.20;;;;;;;;;;5006509;28;20131;-76
2023/10/07 00:52:14;;;;;;;0.17;0.17;;;;;;;;;;5003518;28;20069;-76
2023/10/07 00:57:53;;;;;;;1.00;1.00;;;;;;;;;;5007743;28;20058;-76
2023/10/07 01:00:40;;;;;;;0.20;0.20;;;;;;;;;;5006095;28;20053;-76
2023/10/07 01:03:20;;;;;;;0.98;0.98;;;;;;;;;;5007235;28;20100;-76
2023/10/07 01:08:41;;;;;;;10.60;9.90;;;;;;;;;;5004449;28;20112;-76
2023/10/07 01:13:50;;;;;;;1.83;0.95;;;;;;;;;;5007729;28;20054;-76
2023/10/07 01:16:40;;;;;;;2.20;1.90;;;;;;;;;;5007022;28;20052;-76
2023/10/07 01:30:07;;;;;;;0.40;0.40;;;;;;;;;;5007014;28;20065;-76
2023/10/07 01:32:43;;;;;;;2.35;2.22;;;;;;;;;;5005835;28;20511;-76
2023/10/07 01:35:13;;;;;;;0.00;0.00;;;;;;;;;;5006929;28;20073;-76
2023/10/07 01:37:43;;;;;;;0.30;0.30;;;;;;;;;;5006628;28;20061;-76
2023/10/07 01:40:16;;;;;;;13.63;11.30;;;;;;;;;;5005356;28;20060;-76
2023/10/07 01:42:46;;;;;;;0.32;0.32;;;;;;;;;;5005527;28;20492;-76
2023/10/07 01:45:22;;;;;;;5.28;0.45;;;;;;;;;;5004913;28;20046;-76
2023/10/07 01:47:55;;;;;;;0.00;0.00;;;;;;;;;;5006755;28;20061;-76
2023/10/07 01:50:24;;;;;;;0.00;0.00;;;;;;;;;;5004878;28;20428;-76
2023/10/07 01:52:55;;;;;;;0.20;0.20;;;;;;;;;;5006792;28;20054;-76
2023/10/07 01:55:27;;;;;;;0.43;0.43;;;;;;;;;;5004989;28;20419;-76
2023/10/07 01:57:56;;;;;;;0.00;0.00;;;;;;;;;;5006186;28;20054;-76
2023/10/07 02:00:42;;;;;;;0.10;0.10;;;;;;;;;;5004857;28;20079;-76
2023/10/07 02:03:13;;;;;;;0.10;0.10;;;;;;;;;;5005580;28;20046;-76
2023/10/07 02:05:43;;;;;;;0.08;0.08;;;;;;;;;;5011077;28;20116;-76
2023/10/07 02:08:14;;;;;;;0.20;0.20;;;;;;;;;;5009502;28;20053;-76
2023/10/07 02:10:42;;;;;;;0.22;0.22;;;;;;;;;;5009186;28;20049;-76
2023/10/07 02:13:14;;;;;;;0.20;0.20;;;;;;;;;;5009003;28;20519;-76
2023/10/07 02:15:42;;;;;;;0.45;0.45;;;;;;;;;;5010345;28;20049;-76
2023/10/07 02:18:16;;;;;;;0.32;0.32;;;;;;;;;;5006554;28;20108;-76
2023/10/07 02:21:07;;;;;;;0.47;0.47;;;;;;;;;;5024140;28;20050;-76
2023/10/07 02:26:06;;;;;;;0.20;0.20;;;;;;;;;;5008749;28;20049;-76
2023/10/07 02:28:34;;;;;;;0.40;0.40;;;;;;;;;;5010286;28;20045;-76
2023/10/07 02:31:08;;;;;;;1.17;0.60;;;;;;;;;;5010255;28;20110;-76
2023/10/07 02:33:42;;;;;;;0.30;0.30;;;;;;;;;;5007816;28;20060;-76
2023/10/07 02:36:12;;;;;;;1.98;1.88;;;;;;;;;;5005556;28;20073;-76
2023/10/07 02:38:43;;;;;;;0.55;0.55;;;;;;;;;;5008721;28;20060;-76
2023/10/07 02:41:16;;;;;;;0.45;0.45;;;;;;;;;;5010239;28;20061;-76
2023/10/07 02:43:48;;;;;;;0.10;0.10;;;;;;;;;;5010004;28;20053;-76
2023/10/07 02:49:01;;;;;;;0.05;0.05;;;;;;;;;;5020124;28;20455;-76
2023/10/07 02:51:28;;;;;;;0.20;0.20;;;;;;;;;;4988962;28;20432;-76
2023/10/07 02:54:07;;;;;;;1.75;1.63;;;;;;;;;;4987074;28;20051;-75
2023/10/07 02:56:43;;;;;;;0.77;0.50;;;;;;;;;;4991198;28;20137;-75
2023/10/07 02:59:27;;;;;;;0.00;0.00;;;;;;;;;;4990713;28;20530;-76
2023/10/07 03:07:41;;;;;;;1.38;0.80;;;;;;;;;;4989675;28;20054;-75
2023/10/07 03:10:19;;;;;;;0.10;0.10;;;;;;;;;;4990885;28;20046;-75
2023/10/07 03:12:56;;;;;;;0.85;0.32;;;;;;;;;;4990094;28;20077;-74
2023/10/07 03:18:03;;;;;;;0.00;0.00;;;;;;;;;;4990994;28;20062;-74
2023/10/07 03:20:31;;;;;;;0.35;0.35;;;;;;;;;;4990194;28;20576;-74
2023/10/07 03:23:17;;;;;;;0.20;0.20;;;;;;;;;;5021145;28;20129;-74
2023/10/07 03:28:24;;;;;;;0.10;0.10;;;;;;;;;;4991124;28;20056;-75
2023/10/07 03:30:51;;;;;;;0.30;0.30;;;;;;;;;;4991629;28;20105;-74
2023/10/07 03:33:23;;;;;;;0.10;0.10;;;;;;;;;;4989234;28;20054;-74
2023/10/07 03:38:25;;;;;;;15.27;14.32;;;;;;;;;;4989176;28;20104;-73
2023/10/07 03:40:56;;;;;;;0.10;0.10;;;;;;;;;;4987240;28;20068;-75
2023/10/07 03:43:27;;;;;;;0.50;0.50;;;;;;;;;;4989318;28;20074;-75
2023/10/07 03:45:56;;;;;;;0.43;0.20;;;;;;;;;;4991689;28;20046;-75
2023/10/07 03:48:24;;;;;;;0.35;0.35;;;;;;;;;;5006440;28;20496;-76
2023/10/07 03:51:07;;;;;;;0.00;0.00;;;;;;;;;;5008814;28;20511;-76
2023/10/07 03:53:45;;;;;;;0.00;0.00;;;;;;;;;;5012867;28;20320;-75
2023/10/07 03:56:16;;;;;;;0.22;0.22;;;;;;;;;;5010473;28;20077;-75
2023/10/07 03:58:44;;;;;;;0.35;0.22;;;;;;;;;;5008536;28;20046;-75
2023/10/07 04:01:18;;;;;;;0.10;0.10;;;;;;;;;;5008579;28;20050;-76
2023/10/07 04:03:49;;;;;;;0.20;0.20;;;;;;;;;;5008607;28;20124;-76
2023/10/07 04:06:20;;;;;;;0.35;0.35;;;;;;;;;;5009445;28;20077;-76
2023/10/07 04:08:56;;;;;;;0.20;0.20;;;;;;;;;;5005879;28;20669;-75
2023/10/07 04:11:28;;;;;;;0.85;0.85;;;;;;;;;;5008024;28;20112;-76
2023/10/07 04:13:59;;;;;;;;;;;;;;;;;;5005074;28;20063;-76
2023/10/07 04:16:29;;;;;;;0.77;0.68;;;;;;;;;;5007566;28;19968;-76
2023/10/07 04:19:08;;;;;;;0.65;0.65;;;;;;;;;;5005722;28;20050;-77
2023/10/07 04:21:44;;;;;;;10.98;0.80;;;;;;;;;;5009766;28;20427;-75
2023/10/07 04:24:12;;;;;;;1.55;0.85;;;;;;;;;;5009194;28;20567;-75
2023/10/07 04:26:51;;;;;;;2.03;1.95;;;;;;;;;;5016169;28;20124;-74
2023/10/07 04:29:21;;;;;;;12.55;11.63;;;;;;;;;;5011657;28;20053;-74
2023/10/07 04:31:53;;;;;;;50.70;47.55;;;;;;;;;;5008631;28;20124;-74
2023/10/07 04:34:24;;;;;;;17.33;15.88;;;;;;;;;;5011051;28;20096;-74
2023/10/07 04:42:36;;;;;;;12.60;11.68;;;;;;;;;;5000312;28;20053;-75
2023/10/07 04:45:21;;;;;;;0.10;0.10;;;;;;;;;;5006674;28;20038;-75
2023/10/07 04:47:57;;;;;;;1.42;1.33;;;;;;;;;;5008182;28;20099;-76
2023/10/07 04:50:36;;;;;;;0.98;0.93;;;;;;;;;;5007473;28;20100;-75
2023/10/07 04:53:05;;;;;;;0.28;0.28;;;;;;;;;;5003211;28;20062;-75
2023/10/07 04:55:32;;;;;;;0.50;0.50;;;;;;;;;;5007859;28;20137;-73
2023/10/07 04:58:02;;;;;;;0.00;0.00;;;;;;;;;;5007729;28;20578;-74
2023/10/07 05:03:01;;;;;;;1.77;1.00;;;;;;;;;;5008045;28;20050;-74
2023/10/07 05:05:30;;;;;;;0.82;0.60;;;;;;;;;;5004871;28;20052;-74
2023/10/07 05:08:11;;;;;;;0.47;0.47;;;;;;;;;;5007892;28;20392;-74
2023/10/07 05:10:41;;;;;;;2.95;0.77;;;;;;;;;;5007851;28;20065;-75
2023/10/07 05:13:09;;;;;;;3.47;3.33;;;;;;;;;;5007565;28;20525;-75
2023/10/07 05:15:38;;;;;;;0.68;0.68;;;;;;;;;;5007904;28;20057;-75
2023/10/07 05:18:06;;;;;;;9.00;8.27;;;;;;;;;;5008285;28;20049;-75
2023/10/07 05:20:37;;;;;;;0.30;0.30;;;;;;;;;;5008330;28;20085;-75
2023/10/07 05:23:06;;;;;;;0.03;0.03;;;;;;;;;;5006496;28;20050;-76
2023/10/07 05:25:38;;;;;;;0.32;0.32;;;;;;;;;;5007639;28;20092;-75
2023/10/07 05:28:10;;;;;;;0.47;0.47;;;;;;;;;;5007882;28;20042;-74
2023/10/07 05:30:43;;;;;;;5.70;5.38;;;;;;;;;;5010301;28;20476;-74
2023/10/07 05:33:10;;;;;;;73.50;68.25;;;;;;;;;;5007574;28;20062;-74
2023/10/07 05:35:38;;;;;;;0.28;0.28;;;;;;;;;;5010616;28;20057;-73
2023/10/07 05:38:09;;;;;;;0.30;0.30;;;;;;;;;;5009024;28;20045;-74
2023/10/07 05:40:37;;;;;;;0.10;0.10;;;;;;;;;;5010150;28;20120;-74
2023/10/07 05:43:07;;;;;;;0.43;0.43;;;;;;;;;;5013035;28;20412;-74
2023/10/07 05:45:36;;;;;;;101.93;94.97;;;;;;;;;;5011085;28;20061;-74
2023/10/07 05:48:03;;;;;;;0.10;0.10;;;;;;;;;;5009397;28;20100;-73
2023/10/07 05:50:32;;;;;;;0.20;0.20;;;;;;;;;;5008173;28;20105;-75
2023/10/07 05:53:03;;;;;;;0.60;0.60;;;;;;;;;;5010915;28;20052;-75
2023/10/07 05:55:33;;;;;;;;;;;;;;;;;;5007869;28;20073;-75
2023/10/07 05:58:02;;;;;;;0.47;0.47;;;;;;;;;;5008811;28;20327;-75
2023/10/07 06:00:33;;;;;;;0.30;0.30;;;;;;;;;;5036322;28;20052;-75
2023/10/07 06:03:05;;;;;;;0.10;0.10;;;;;;;;;;5002464;28;20112;-75
2023/10/07 06:05:37;;;;;;;0.20;0.20;;;;;;;;;;5008643;28;20104;-75
2023/10/07 06:08:05;;;;;;;2.72;0.52;;;;;;;;;;5009491;28;20049;-75
2023/10/07 06:10:33;;;;;;;0.75;0.75;;;;;;;;;;5009169;28;20077;-76
2023/10/07 06:13:08;;;;;;;4.05;3.85;;;;;;;;;;5008137;28;20050;-76
2023/10/07 06:15:37;;;;;;;0.32;0.32;;;;;;;;;;5008658;28;20057;-74
2023/10/07 06:18:05;;;;;;;0.00;0.00;;;;;;;;;;5008375;28;20046;-74
2023/10/07 06:20:46;;;;;;;0.20;0.20;;;;;;;;;;5006877;28;20392;-74
2023/10/07 06:23:14;;;;;;;0.40;0.40;;;;;;;;;;5007907;28;20508;-75
2023/10/07 06:25:48;;;;;;;0.60;0.60;;;;;;;;;;5005998;28;20056;-74
2023/10/07 06:31:00;;;;;;;0.10;0.10;;;;;;;;;;5008619;28;20586;-75
2023/10/07 06:33:31;;;;;;;0.80;0.80;;;;;;;;;;5006430;28;20125;-75
2023/10/07 06:35:59;;;;;;;0.37;0.37;;;;;;;;;;5009033;28;20050;-74
2023/10/07 06:38:26;;;;;;;0.20;0.20;;;;;;;;;;5008214;28;20046;-75
2023/10/07 06:40:56;;;;;;;0.68;0.68;;;;;;;;;;5008127;28;20419;-75
2023/10/07 06:43:25;;;;;;;0.63;0.63;;;;;;;;;;5006887;28;20046;-75
2023/10/07 06:45:55;;;;;;;0.32;0.32;;;;;;;;;;5006624;28;20081;-75
2023/10/07 06:48:30;;;;;;;0.17;0.17;;;;;;;;;;5007234;28;20046;-76
2023/10/07 06:50:58;;;;;;;1.00;1.00;;;;;;;;;;5009371;28;20126;-76
2023/10/07 06:53:30;;;;;;;0.10;0.10;;;;;;;;;;5006513;28;20076;-73
2023/10/07 06:55:58;;;;;;;0.80;0.52;;;;;;;;;;5009355;28;20042;-75
2023/10/07 06:58:26;;;;;;;0.08;0.08;;;;;;;;;;5009865;28;20053;-73
2023/10/07 07:01:09;;;;;;;0.88;0.88;;;;;;;;;;5007737;28;20503;-75
2023/10/07 07:03:36;;;;;;;0.17;0.17;;;;;;;;;;5036760;28;20150;-73
2023/10/07 07:06:16;;;;;;;0.13;0.13;;;;;;;;;;5009083;28;20124;-75
2023/10/07 07:08:44;;;;;;;0.85;0.70;;;;;;;;;;5010778;28;20128;-75
2023/10/07 07:11:16;;;;;;;0.80;0.80;;;;;;;;;;5014721;28;20048;-75
2023/10/07 07:13:44;;;;;;;0.10;0.10;;;;;;;;;;5042509;28;20053;-75
2023/10/07 07:16:13;;;;;;;0.10;0.10;;;;;;;;;;5010983;28;20054;-74
2023/10/07 07:18:41;;;;;;;17.17;11.85;;;;;;;;;;5012090;28;20065;-75
2023/10/07 07:21:14;;;;;;;37.25;34.88;;;;;;;;;;5018244;28;20057;-75
2023/10/07 07:23:49;;;;;;;0.03;0.03;;;;;;;;;;5010406;28;20045;-74
2023/10/07 07:26:21;;;;;;;0.75;0.75;;;;;;;;;;5007128;28;20125;-75
2023/10/07 07:28:54;;;;;;;10.40;9.70;;;;;;;;;;5003023;28;20049;-76
2023/10/07 07:31:26;;;;;;;6.55;6.05;;;;;;;;;;5008001;28;20322;-75
2023/10/07 07:34:05;;;;;;;;;;;;;;;;;;5002827;28;20512;-74
2023/10/07 07:36:42;;;;;;;1.00;0.95;;;;;;;;;;5007806;28;19926;-75
2023/10/07 07:39:09;;;;;;;3.05;0.98;;;;;;;;;;5009935;28;20473;-74
2023/10/07 07:41:38;;;;;;;1.30;1.30;;;;;;;;;;5009058;28;20427;-75
2023/10/07 07:44:11;;;;;;;5.38;5.07;;;;;;;;;;5008006;28;20081;-76
2023/10/07 07:47:02;;;;;;;0.43;0.43;;;;;;;;;;5009042;28;20046;-74
2023/10/07 07:49:31;;;;;;;0.75;0.75;;;;;;;;;;5007732;28;20404;-77
2023/10/07 07:52:00;;;;;;;1.27;1.27;;;;;;;;;;5009946;28;20042;-75
2023/10/07 07:54:29;;;;;;;0.82;0.82;;;;;;;;;;5007833;28;20064;-75
2023/10/07 07:56:59;;;;;;;0.63;0.63;;;;;;;;;;5010160;28;20057;-76
2023/10/07 07:59:32;;;;;;;0.30;0.30;;;;;;;;;;5008296;28;20061;-76
2023/10/07 08:02:13;;;;;;;0.05;0.05;;;;;;;;;;5007356;28;20050;-77
2023/10/07 08:04:48;;;;;;;0.10;0.10;;;;;;;;;;5007495;28;20038;-76
2023/10/07 08:07:24;;;;;;;1.17;1.17;;;;;;;;;;5012863;28;20483;-76
2023/10/07 08:09:53;;;;;;;20.77;19.02;;;;;;;;;;5010925;28;20133;-75
2023/10/07 08:12:28;;;;;;;0.40;0.40;;;;;;;;;;5008975;28;20113;-75
2023/10/07 08:14:58;;;;;;;0.52;0.52;;;;;;;;;;5007253;28;20037;-75
2023/10/07 08:17:29;;;;;;;0.30;0.30;;;;;;;;;;5007296;28;20145;-75
2023/10/07 08:20:07;;;;;;;0.10;0.10;;;;;;;;;;5005747;28;20046;-74
2023/10/07 08:22:37;;;;;;;0.22;0.22;;;;;;;;;;5008022;28;20068;-74
2023/10/07 08:25:08;;;;;;;0.15;0.15;;;;;;;;;;5005688;28;20133;-74
2023/10/07 08:27:49;;;;;;;5.93;5.57;;;;;;;;;;5007664;28;20046;-75
2023/10/07 08:30:37;;;;;;;0.80;0.80;;;;;;;;;;5007138;28;20393;-75
2023/10/07 08:33:12;;;;;;;25.83;23.20;;;;;;;;;;5006225;28;20056;-77
2023/10/07 08:35:44;;;;;;;0.28;0.28;;;;;;;;;;5005717;28;20056;-76
2023/10/07 08:38:37;;;;;;;0.30;0.20;;;;;;;;;;5005612;28;20042;-75
2023/10/07 08:41:10;;;;;;;1.52;1.52;;;;;;;;;;5009755;28;20415;-74
2023/10/07 08:43:43;;;;;;;0.25;0.25;;;;;;;;;;5004040;28;20096;-74
2023/10/07 08:46:16;;;;;;;0.13;0.13;;;;;;;;;;5002702;28;20400;-75
2023/10/07 08:48:55;;;;;;;0.03;0.03;;;;;;;;;;5086399;22;20061;-88
2023/10/07 08:51:33;;;;;;;0.38;0.38;;;;;;;;;;5023903;28;20558;-88
2023/10/07 08:54:10;;;;;;;0.30;0.30;;;;;;;;;;5024638;28;20077;-88
2023/10/07 08:56:40;;;;;;;0.38;0.38;;;;;;;;;;5023496;28;20049;-88
2023/10/07 08:59:08;;;;;;;0.77;0.77;;;;;;;;;;5022254;28;20089;-88
2023/10/07 09:01:36;;;;;;;0.20;0.20;;;;;;;;;;5013093;28;20050;-87
2023/10/07 09:04:07;;;;;;;0.70;0.70;;;;;;;;;;5018741;28;20046;-88
2023/10/07 09:06:37;;;;;;;0.13;0.13;;;;;;;;;;5030691;28;20168;-88
2023/10/07 09:09:06;;;;;;;2.03;1.88;;;;;;;;;;5026643;28;20045;-88
2023/10/07 09:11:38;;;;;;;0.00;0.00;;;;;;;;;;5018171;28;20045;-88
2023/10/07 09:14:07;;;;;;;0.28;0.28;;;;;;;;;;5023476;28;20038;-88
2023/10/07 09:16:35;;;;;;;0.38;0.38;;;;;;;;;;5034492;28;20041;-88
2023/10/07 09:19:10;;;;;;;1.27;1.17;;;;;;;;;;5025476;28;20501;-88
2023/10/07 09:21:38;;;;;;;0.20;0.20;;;;;;;;;;5023157;28;20042;-87
2023/10/07 09:24:13;;;;;;;0.10;0.10;;;;;;;;;;5022112;28;20056;-87
2023/10/07 09:26:57;;;;;;;2.75;2.65;;;;;;;;;;5015957;28;20037;-87
2023/10/07 09:29:24;;;;;;;0.35;0.32;;;;;;;;;;5019893;28;20049;-87
2023/10/07 09:32:04;;;;;;;12.85;0.55;;;;;;;;;;5020990;28;20129;-88
2023/10/07 09:34:47;;;;;;;5.55;5.25;;;;;;;;;;5020502;28;20046;-88
2023/10/07 09:37:26;;;;;;;4.75;4.40;;;;;;;;;;5020731;28;20049;-88
2023/10/07 09:39:55;;;;;;;0.40;0.40;;;;;;;;;;5015618;28;20046;-88
2023/10/07 09:42:26;;;;;;;0.15;0.15;;;;;;;;;;5015334;28;20658;-88
2023/10/07 09:47:38;;;;;;;0.22;0.22;;;;;;;;;;5023308;28;20057;-88
2023/10/07 09:50:10;;;;;;;0.08;0.08;;;;;;;;;;5025120;28;20053;-88
2023/10/07 09:52:42;;;;;;;0.50;0.50;;;;;;;;;;5016514;28;20125;-87
2023/10/07 09:55:31;;;;;;;0.17;0.17;;;;;;;;;;5018683;28;20072;-86
2023/10/07 09:58:00;;;;;;;0.00;0.00;;;;;;;;;;5009383;28;20042;-86
2023/10/07 10:00:42;;;;;;;0.10;0.10;;;;;;;;;;5019843;28;20104;-86
2023/10/07 10:03:12;;;;;;;2.38;0.30;;;;;;;;;;5018389;28;20113;-86
2023/10/07 10:05:59;;;;;;;0.75;0.75;;;;;;;;;;5022726;28;20149;-86
2023/10/07 10:08:47;;;;;;;0.45;0.45;;;;;;;;;;5026272;28;20045;-87
2023/10/07 10:11:30;;;;;;;0.13;0.13;;;;;;;;;;5022213;28;20129;-87
2023/10/07 10:16:44;;;;;;;0.63;0.63;;;;;;;;;;5022018;28;20042;-88
2023/10/07 10:19:24;;;;;;;13.35;12.52;;;;;;;;;;5020689;28;20052;-87
2023/10/07 10:21:52;;;;;;;0.15;0.15;;;;;;;;;;5022051;28;20119;-87
2023/10/07 10:24:31;;;;;;;0.20;0.20;;;;;;;;;;5016884;28;20109;-87
2023/10/07 10:27:05;;;;;;;0.15;0.13;;;;;;;;;;5033193;28;20037;-86
2023/10/07 10:29:36;;;;;;;0.00;0.00;;;;;;;;;;5022571;28;20053;-87
2023/10/07 10:32:16;;;;;;;0.25;0.25;;;;;;;;;;5026985;28;20069;-86
2023/10/07 10:34:45;;;;;;;17.33;16.20;;;;;;;;;;5022834;28;20064;-87
2023/10/07 10:37:12;;;;;;;0.25;0.25;;;;;;;;;;5025564;28;20046;-87
2023/10/07 10:39:40;;;;;;;0.10;0.10;;;;;;;;;;5021775;28;20049;-87
2023/10/07 10:42:13;;;;;;;0.68;0.68;;;;;;;;;;5024401;28;20057;-87
2023/10/07 10:44:46;;;;;;;2.13;2.05;;;;;;;;;;5021607;28;20046;-87
2023/10/07 10:47:17;;;;;;;0.20;0.20;;;;;;;;;;5027843;28;20041;-87
2023/10/07 10:49:45;;;;;;;0.25;0.25;;;;;;;;;;5028243;28;20041;-87
2023/10/07 10:52:13;;;;;;;9.13;6.18;;;;;;;;;;5023496;28;20057;-88
2023/10/07 10:54:41;;;;;;;0.00;0.00;;;;;;;;;;5024948;28;20140;-87
2023/10/07 10:57:13;;;;;;;3.80;3.60;;;;;;;;;;5027290;28;20045;-87
2023/10/07 10:59:43;;;;;;;1.63;1.52;;;;;;;;;;5023390;28;20128;-87
2023/10/07 11:02:11;;;;;;;1.90;1.70;;;;;;;;;;5029526;28;20643;-87
2023/10/07 11:04:40;;;;;;;0.80;0.70;;;;;;;;;;5022414;28;20073;-87
2023/10/07 11:07:08;;;;;;;5.78;5.45;;;;;;;;;;5015006;28;20042;-86
2023/10/07 11:09:38;;;;;;;0.00;0.00;;;;;;;;;;5024025;28;20088;-87
2023/10/07 11:12:12;;;;;;;0.17;0.17;;;;;;;;;;5026354;28;20512;-87
2023/10/07 11:14:41;;;;;;;22.45;20.10;;;;;;;;;;5019935;28;20101;-87
2023/10/07 11:17:09;;;;;;;2.05;1.95;;;;;;;;;;5022733;28;20141;-86
2023/10/07 11:19:51;;;;;;;0.00;0.00;;;;;;;;;;5025066;28;20046;-87
2023/10/07 11:22:22;;;;;;;0.00;0.00;;;;;;;;;;5021238;28;20053;-87
2023/10/07 11:24:51;;;;;;;0.43;0.43;;;;;;;;;;5021539;28;20379;-87
2023/10/07 11:27:19;;;;;;;1.25;1.23;;;;;;;;;;5021951;28;20041;-87
2023/10/07 11:29:57;;;;;;;0.00;0.00;;;;;;;;;;5020389;28;20117;-87
2023/10/07 11:32:29;;;;;;;0.55;0.55;;;;;;;;;;5003380;28;20092;-87
2023/10/07 11:34:59;;;;;;;0.65;0.30;;;;;;;;;;5014441;28;20046;-87
2023/10/07 11:37:27;;;;;;;0.20;0.20;;;;;;;;;;5005982;28;20409;-87
2023/10/07 11:39:55;;;;;;;0.00;0.00;;;;;;;;;;5019791;28;20044;-89
2023/10/07 11:42:23;;;;;;;0.10;0.10;;;;;;;;;;5021612;28;20053;-88
2023/10/07 11:44:55;;;;;;;0.15;0.15;;;;;;;;;;5015326;28;20457;-87
2023/10/07 11:47:25;;;;;;;0.00;0.00;;;;;;;;;;5025862;28;20074;-88
2023/10/07 11:49:53;;;;;;;0.00;0.00;;;;;;;;;;5020932;28;20033;-88
2023/10/07 11:52:20;;;;;;;0.00;0.00;;;;;;;;;;5023789;28;20078;-89
2023/10/07 11:54:48;;;;;;;0.00;0.00;;;;;;;;;;5011885;28;20045;-87
2023/10/07 11:57:20;;;;;;;0.00;0.00;;;;;;;;;;5017966;28;20114;-88
2023/10/07 11:59:47;;;;;;;0.63;0.63;;;;;;;;;;5019030;28;20124;-85
2023/10/07 12:02:15;;;;;;;0.10;0.10;;;;;;;;;;5015651;28;20128;-87
2023/10/07 12:04:47;;;;;;;0.80;0.63;;;;;;;;;;5010560;28;20074;-86
2023/10/07 12:07:16;;;;;;;0.00;0.00;;;;;;;;;;5017764;28;20051;-86
2023/10/07 12:09:48;;;;;;;0.00;0.00;;;;;;;;;;5019983;28;20591;-86
2023/10/07 12:12:17;;;;;;;0.00;0.00;;;;;;;;;;5012165;28;20053;-86
2023/10/07 12:14:47;;;;;;;0.00;0.00;;;;;;;;;;5019592;28;20053;-86
2023/10/07 12:17:16;;;;;;;0.10;0.10;;;;;;;;;;5019500;28;20425;-86
2023/10/07 12:19:44;;;;;;;0.17;0.17;;;;;;;;;;5020482;28;20135;-86
2023/10/07 12:22:13;;;;;;;0.00;0.00;;;;;;;;;;5021213;28;20056;-86
2023/10/07 12:24:42;;;;;;;0.00;0.00;;;;;;;;;;5014740;28;21555;-86
2023/10/07 12:27:10;;;;;;;0.00;0.00;;;;;;;;;;5016125;28;20405;-86
2023/10/07 12:29:39;;;;;;;0.25;0.25;;;;;;;;;;5022449;28;20062;-86
2023/10/07 12:32:06;;;;;;;0.30;0.30;;;;;;;;;;5020178;28;20489;-85
2023/10/07 12:34:35;;;;;;;0.20;0.20;;;;;;;;;;5017766;28;20049;-86
2023/10/07 12:37:05;;;;;;;0.10;0.10;;;;;;;;;;5017221;28;20038;-85
2023/10/07 12:39:39;;;;;;;0.20;0.20;;;;;;;;;;5016779;28;20574;-87
2023/10/07 12:42:07;;;;;;;0.00;0.00;;;;;;;;;;5025328;28;20045;-86
2023/10/07 12:44:34;;;;;;;1.75;0.70;;;;;;;;;;5017833;28;20049;-86
2023/10/07 12:47:05;;;;;;;0.00;0.00;;;;;;;;;;5023529;28;20509;-85
2023/10/07 12:49:36;;;;;;;0.28;0.28;;;;;;;;;;5023128;28;20560;-85
2023/10/07 12:52:04;;;;;;;0.00;0.00;;;;;;;;;;5014888;28;20037;-85
2023/10/07 12:54:32;;;;;;;0.00;0.00;;;;;;;;;;5020566;28;20053;-86
2023/10/07 12:57:03;;;;;;;0.00;0.00;;;;;;;;;;5026943;28;20042;-86
2023/10/07 12:59:35;;;;;;;0.00;0.00;;;;;;;;;;5023003;28;20034;-84
2023/10/07 13:02:03;;;;;;;0.00;0.00;;;;;;;;;;5025600;28;20052;-85
2023/10/07 13:04:37;;;;;;;0.00;0.00;;;;;;;;;;5017395;28;20120;-86
2023/10/07 13:07:10;;;;;;;0.00;0.00;;;;;;;;;;5017103;28;20058;-85
2023/10/07 13:09:42;;;;;;;0.00;0.00;;;;;;;;;;5025751;28;20041;-85
2023/10/07 13:12:15;;;;;;;0.25;0.10;;;;;;;;;;5023878;28;20073;-85
2023/10/07 13:14:45;;;;;;;0.00;0.00;;;;;;;;;;5017136;28;20467;-85
2023/10/07 13:17:14;;;;;;;0.00;0.00;;;;;;;;;;5026870;28;20041;-86
2023/10/07 13:19:44;;;;;;;0.00;0.00;;;;;;;;;;5018312;28;20058;-86
2023/10/07 13:22:12;;;;;;;0.00;0.00;;;;;;;;;;5022727;28;20048;-86
2023/10/07 13:24:40;;;;;;;0.00;0.00;;;;;;;;;;5018149;28;20038;-86
2023/10/07 13:27:08;;;;;;;0.10;0.10;;;;;;;;;;5017504;28;20699;-86
2023/10/07 13:29:36;;;;;;;0.00;0.00;;;;;;;;;;5021755;28;20116;-86
2023/10/07 13:32:04;;;;;;;0.00;0.00;;;;;;;;;;5018532;28;20044;-86
2023/10/07 13:34:38;;;;;;;0.00;0.00;;;;;;;;;;5019692;28;20092;-85
2023/10/07 13:37:06;;;;;;;0.20;0.20;;;;;;;;;;5016464;28;20047;-86
2023/10/07 13:39:33;;;;;;;0.13;0.13;;;;;;;;;;5015572;28;20088;-86
2023/10/07 13:42:09;;;;;;;0.00;0.00;;;;;;;;;;5013720;28;20042;-86
2023/10/07 13:44:37;;;;;;;0.43;0.43;;;;;;;;;;5013088;28;20058;-86
2023/10/07 13:47:07;;;;;;;0.00;0.00;;;;;;;;;;5017275;28;20044;-87
2023/10/07 13:49:37;;;;;;;0.00;0.00;;;;;;;;;;5025004;28;20042;-86
2023/10/07 13:52:08;;;;;;;0.00;0.00;;;;;;;;;;5018290;28;20050;-86
2023/10/07 13:54:46;;;;;;;0.00;0.00;;;;;;;;;;5019750;28;20057;-86
2023/10/07 13:57:18;;;;;;;0.00;0.00;;;;;;;;;;5017521;28;20046;-86
2023/10/07 13:59:51;;;;;;;0.47;0.32;;;;;;;;;;5021832;28;20050;-86
2023/10/07 14:02:19;;;;;;;0.00;0.00;;;;;;;;;;5027939;28;20485;-86
2023/10/07 14:04:48;;;;;;;2.45;0.52;;;;;;;;;;5022327;28;20037;-86
2023/10/07 14:07:16;;;;;;;0.00;0.00;;;;;;;;;;5025682;28;20046;-86
2023/10/07 14:09:48;;;;;;;0.00;0.00;;;;;;;;;;5015664;28;20045;-86
2023/10/07 14:12:16;;;;;;;0.00;0.00;;;;;;;;;;5021311;28;20053;-86
2023/10/07 14:14:50;;;;;;;0.10;0.10;;;;;;;;;;5026670;28;20041;-86
2023/10/07 14:17:18;;;;;;;0.00;0.00;;;;;;;;;;5026348;28;20052;-86
2023/10/07 14:19:46;;;;;;;0.10;0.10;;;;;;;;;;5021021;28;20080;-86
2023/10/07 14:22:15;;;;;;;0.00;0.00;;;;;;;;;;5024971;28;20116;-86
2023/10/07 14:24:44;;;;;;;0.00;0.00;;;;;;;;;;5019215;28;20042;-86
2023/10/07 14:27:11;;;;;;;0.00;0.00;;;;;;;;;;5020373;28;20057;-85
2023/10/07 14:29:38;;;;;;;0.00;0.00;;;;;;;;;;5018640;28;20045;-86
2023/10/07 14:32:09;;;;;;;0.00;0.00;;;;;;;;;;5020605;28;20112;-86
2023/10/07 14:34:40;;;;;;;0.20;0.20;;;;;;;;;;5019156;28;20137;-86
2023/10/07 14:37:10;;;;;;;0.10;0.10;;;;;;;;;;5025086;28;20112;-86
2023/10/07 14:39:39;;;;;;;0.00;0.00;;;;;;;;;;5020532;28;20527;-86
2023/10/07 14:42:25;;;;;;;0.20;0.20;;;;;;;;;;5024833;28;20100;-85
2023/10/07 14:44:52;;;;;;;0.00;0.00;;;;;;;;;;5021526;28;20104;-85
2023/10/07 14:47:21;;;;;;;3.50;0.70;;;;;;;;;;5022257;28;20120;-85
2023/10/07 14:49:49;;;;;;;0.40;0.40;;;;;;;;;;5000522;28;20120;-86
2023/10/07 14:52:17;;;;;;;0.00;0.00;;;;;;;;;;5021021;28;20073;-86
2023/10/07 14:54:44;;;;;;;0.05;0.05;;;;;;;;;;5021001;28;20057;-85
2023/10/07 14:57:17;;;;;;;0.00;0.00;;;;;;;;;;5023238;28;20050;-85
2023/10/07 14:59:45;;;;;;;0.05;0.00;;;;;;;;;;5025368;28;20415;-85
2023/10/07 15:02:13;;;;;;;0.10;0.10;;;;;;;;;;5021708;28;21305;-86
2023/10/07 15:04:41;;;;;;;0.38;0.38;;;;;;;;;;5021883;28;20053;-86
2023/10/07 15:07:09;;;;;;;0.20;0.20;;;;;;;;;;5015639;28;20045;-85
2023/10/07 15:09:36;;;;;;;0.00;0.00;;;;;;;;;;5012972;28;20042;-85
2023/10/07 15:12:07;;;;;;;0.00;0.00;;;;;;;;;;5012388;28;20041;-85
2023/10/07 15:14:35;;;;;;;0.00;0.00;;;;;;;;;;5018736;28;20054;-85
2023/10/07 15:17:04;;;;;;;0.28;0.28;;;;;;;;;;5014356;28;20113;-84
2023/10/07 15:19:33;;;;;;;0.32;0.32;;;;;;;;;;5019834;28;20276;-85
2023/10/07 15:22:05;;;;;;;0.00;0.00;;;;;;;;;;5018741;28;20129;-84
2023/10/07 15:24:34;;;;;;;0.57;0.57;;;;;;;;;;5019821;28;20036;-84
2023/10/07 15:27:01;;;;;;;0.00;0.00;;;;;;;;;;5020380;28;20084;-85
2023/10/07 15:29:31;;;;;;;0.00;0.00;;;;;;;;;;5022542;28;20134;-84
2023/10/07 15:31:59;;;;;;;0.00;0.00;;;;;;;;;;5021390;28;20061;-85
2023/10/07 15:34:26;;;;;;;3.03;1.65;;;;;;;;;;5020788;28;20042;-85
2023/10/07 15:36:59;;;;;;;;;;;;;;;;;;5025549;28;20116;-84
2023/10/07 15:39:28;;;;;;;0.00;0.00;;;;;;;;;;5020985;28;19928;-84
2023/10/07 15:41:57;;;;;;;0.30;0.30;;;;;;;;;;5023083;28;20053;-85
2023/10/07 15:44:24;;;;;;;0.00;0.00;;;;;;;;;;5017276;28;20060;-85
2023/10/07 15:46:52;;;;;;;0.10;0.10;;;;;;;;;;5022941;28;20041;-85
2023/10/07 15:49:20;;;;;;;0.13;0.13;;;;;;;;;;5025612;28;20033;-85
2023/10/07 15:51:47;;;;;;;0.52;0.20;;;;;;;;;;5022914;28;20445;-85
2023/10/07 15:54:15;;;;;;;0.00;0.00;;;;;;;;;;5025700;28;20046;-84
2023/10/07 15:56:42;;;;;;;0.00;0.00;;;;;;;;;;5019242;28;20183;-84
2023/10/07 15:59:11;;;;;;;0.82;0.30;;;;;;;;;;5018761;28;20076;-84
2023/10/07 16:01:40;;;;;;;0.63;0.40;;;;;;;;;;5026051;28;20053;-84
2023/10/07 16:04:11;;;;;;;0.00;0.00;;;;;;;;;;5022154;28;20048;-85
2023/10/07 16:06:40;;;;;;;0.00;0.00;;;;;;;;;;5021043;28;20042;-84
2023/10/07 16:09:13;;;;;;;0.20;0.20;;;;;;;;;;5025216;28;20434;-84